createdAt,value
2018-04-11T00:00:32.010Z,97290.08
2018-04-11T00:03:00.272Z,97290.90
2018-04-11T00:05:28.551Z,97289.97
2018-04-11T00:07:56.830Z,97296.70
2018-04-11T00:10:25.079Z,97292.08
2018-04-11T00:12:53.372Z,97291.00
2018-04-11T00:15:21.624Z,97287.76
2018-04-11T00:17:49.885Z,97295.00
2018-04-11T00:20:18.912Z,97294.81
2018-04-11T00:22:47.165Z,97291.64
2018-04-11T00:25:16.212Z,97292.97
2018-04-11T00:27:44.487Z,97292.58
2018-04-11T00:30:12.763Z,97296.88
2018-04-11T00:32:41.047Z,97301.19
2018-04-11T00:35:09.314Z,97298.47
2018-04-11T00:37:37.705Z,97298.66
2018-04-11T00:40:05.991Z,97303.79
2018-04-11T00:42:34.245Z,97310.73
2018-04-11T00:45:02.533Z,97304.19
2018-04-11T00:47:30.798Z,97311.09
2018-04-11T00:49:59.045Z,97310.87
2018-04-11T00:52:27.348Z,97308.27
2018-04-11T00:54:55.637Z,97308.64
2018-04-11T00:57:23.895Z,97306.92
2018-04-11T00:59:52.159Z,97310.73
2018-04-11T01:02:20.429Z,97310.52
2018-04-11T01:04:48.705Z,97308.13
2018-04-11T01:07:17.775Z,97309.84
2018-04-11T01:09:46.052Z,97306.16
2018-04-11T01:12:14.297Z,97302.81
2018-04-11T01:14:42.597Z,97303.23
2018-04-11T01:17:10.857Z,97301.89
2018-04-11T01:19:39.111Z,97297.78
2018-04-11T01:22:07.408Z,97299.57
2018-04-11T01:24:35.685Z,97294.60
2018-04-11T01:27:03.968Z,97285.28
2018-04-11T01:29:32.232Z,97290.77
2018-04-11T01:32:00.505Z,97284.56
2018-04-11T01:34:28.810Z,97283.98
2018-04-11T01:36:57.089Z,97285.70
2018-04-11T01:39:25.348Z,97287.02
2018-04-11T01:41:53.593Z,97285.82
2018-04-11T01:44:21.883Z,97293.89
2018-04-11T01:46:50.176Z,97293.63
2018-04-11T01:49:18.456Z,97293.13
2018-04-11T01:51:46.750Z,97298.55
2018-04-11T01:54:14.997Z,97294.52
2018-04-11T01:56:43.258Z,97296.40
2018-04-11T01:59:11.533Z,97299.47
2018-04-11T02:01:40.568Z,97296.11
2018-04-11T02:04:08.837Z,97299.49
2018-04-11T02:06:37.149Z,97300.06
2018-04-11T02:09:05.413Z,97299.16
2018-04-11T02:11:33.689Z,97298.17
2018-04-11T02:14:01.967Z,97297.92
2018-04-11T02:16:30.211Z,97294.41
2018-04-11T02:18:58.482Z,97289.57
2018-04-11T02:21:26.780Z,97289.09
2018-04-11T02:23:55.023Z,97290.27
2018-04-11T02:26:24.040Z,97291.86
2018-04-11T02:28:52.338Z,97288.63
2018-04-11T02:31:21.396Z,97289.92
2018-04-11T02:33:50.412Z,97292.48
2018-04-11T02:36:18.718Z,97292.41
2018-04-11T02:38:46.965Z,97288.25
2018-04-11T02:41:15.232Z,97289.91
2018-04-11T02:43:43.524Z,97290.20
2018-04-11T02:46:11.779Z,97292.11
2018-04-11T02:48:40.061Z,97289.54
2018-04-11T02:51:09.138Z,97288.10
2018-04-11T02:53:38.211Z,97286.48
2018-04-11T02:56:06.496Z,97285.56
2018-04-11T02:58:34.781Z,97289.00
2018-04-11T03:01:03.049Z,97291.97
2018-04-11T03:03:31.322Z,97302.27
2018-04-11T03:05:59.583Z,97303.64
2018-04-11T03:08:27.832Z,97297.02
2018-04-11T03:10:56.133Z,97302.67
2018-04-11T03:13:24.407Z,97302.22
2018-04-11T03:15:52.661Z,97294.09
2018-04-11T03:18:20.964Z,97303.72
2018-04-11T03:20:49.238Z,97303.48
2018-04-11T03:23:17.514Z,97303.99
2018-04-11T03:25:45.790Z,97302.14
2018-04-11T03:28:14.061Z,97304.47
2018-04-11T03:30:42.323Z,97300.98
2018-04-11T03:33:10.607Z,97296.77
2018-04-11T03:35:38.872Z,97292.55
2018-04-11T03:38:07.170Z,97299.75
2018-04-11T03:40:35.441Z,97292.81
2018-04-11T03:43:03.746Z,97296.25
2018-04-11T03:45:32.047Z,97291.52
2018-04-11T03:48:00.302Z,97291.56
2018-04-11T03:50:28.578Z,97284.22
2018-04-11T03:52:56.875Z,97287.93
2018-04-11T03:55:25.623Z,97291.58
2018-04-11T03:57:53.872Z,97288.71
2018-04-11T04:00:22.159Z,97287.57
2018-04-11T04:02:50.429Z,97290.82
2018-04-11T04:05:18.708Z,97296.28
2018-04-11T04:07:47.020Z,97301.03
2018-04-11T04:10:15.263Z,97300.33
2018-04-11T04:12:43.530Z,97306.70
2018-04-11T04:15:29.339Z,97305.69
2018-04-11T04:18:15.316Z,97309.20
2018-04-11T04:20:43.596Z,97312.50
2018-04-11T04:23:12.647Z,97310.70
2018-04-11T04:25:40.957Z,97313.55
2018-04-11T04:28:09.205Z,97320.56
2018-04-11T04:30:37.497Z,97327.23
2018-04-11T04:33:05.789Z,97326.73
2018-04-11T04:35:34.067Z,97326.88
2018-04-11T04:38:02.317Z,97327.45
2018-04-11T04:40:30.649Z,97336.36
2018-04-11T04:42:58.931Z,97346.22
2018-04-11T04:45:27.202Z,97342.98
2018-04-11T04:47:55.495Z,97352.67
2018-04-11T04:50:23.756Z,97357.36
2018-04-11T04:52:52.017Z,97352.62
2018-04-11T04:55:20.335Z,97357.03
2018-04-11T04:57:48.619Z,97358.93
2018-04-11T05:00:16.899Z,97355.38
2018-04-11T05:02:45.184Z,97361.41
2018-04-11T05:05:13.464Z,97362.84
2018-04-11T05:07:41.766Z,97360.77
2018-04-11T05:10:10.053Z,97358.06
2018-04-11T05:12:38.330Z,97356.53
2018-04-11T05:15:06.591Z,97356.66
2018-04-11T05:17:34.870Z,97357.67
2018-04-11T05:20:03.148Z,97356.61
2018-04-11T05:22:31.410Z,97362.38
2018-04-11T05:24:59.720Z,97363.52
2018-04-11T05:27:27.969Z,97368.20
2018-04-11T05:29:56.249Z,97365.27
2018-04-11T05:32:24.575Z,97364.84
2018-04-11T05:34:52.865Z,97368.52
2018-04-11T05:37:21.120Z,97365.43
2018-04-11T05:39:49.414Z,97367.55
2018-04-11T05:42:17.689Z,97371.45
2018-04-11T05:44:46.741Z,97370.11
2018-04-11T05:47:15.023Z,97365.39
2018-04-11T05:49:43.293Z,97369.84
2018-04-11T05:52:11.560Z,97372.03
2018-04-11T05:54:39.844Z,97379.03
2018-04-11T05:57:08.108Z,97377.13
2018-04-11T05:59:36.367Z,97377.13
2018-04-11T06:02:04.678Z,97372.30
2018-04-11T06:04:32.971Z,97375.71
2018-04-11T06:07:01.233Z,97372.92
2018-04-11T06:09:29.505Z,97370.85
2018-04-11T06:11:57.759Z,97373.02
2018-04-11T06:14:26.016Z,97376.88
2018-04-11T06:16:55.082Z,97378.20
2018-04-11T06:19:23.317Z,97379.69
2018-04-11T06:21:51.561Z,97376.05
2018-04-11T06:24:20.621Z,97373.97
2018-04-11T06:26:48.893Z,97384.03
2018-04-11T06:29:17.914Z,97385.56
2018-04-11T06:31:46.223Z,97386.40
2018-04-11T06:34:14.488Z,97385.84
2018-04-11T06:36:42.752Z,97389.00
2018-04-11T06:39:11.053Z,97386.54
2018-04-11T06:41:39.297Z,97392.44
2018-04-11T06:44:07.563Z,97380.05
2018-04-11T06:46:35.867Z,97384.81
2018-04-11T06:49:04.914Z,97379.16
2018-04-11T06:51:33.195Z,97379.20
2018-04-11T06:54:01.479Z,97385.87
2018-04-11T06:56:29.738Z,97385.02
2018-04-11T06:58:58.019Z,97379.66
2018-04-11T07:01:26.302Z,97377.64
2018-04-11T07:03:54.598Z,97377.47
2018-04-11T07:06:22.849Z,97381.66
2018-04-11T07:08:51.140Z,97373.83
2018-04-11T07:11:19.385Z,97369.09
2018-04-11T07:13:47.659Z,97370.63
2018-04-11T07:16:15.948Z,97368.86
2018-04-11T07:18:44.210Z,97363.55
2018-04-11T07:21:12.488Z,97365.41
2018-04-11T07:23:40.752Z,97366.05
2018-04-11T07:26:09.008Z,97363.34
2018-04-11T07:28:37.287Z,97360.16
2018-04-11T07:31:05.582Z,97356.56
2018-04-11T07:33:33.859Z,97359.79
2018-04-11T07:36:02.889Z,97366.77
2018-04-11T07:38:31.179Z,97365.88
2018-04-11T07:40:59.466Z,97355.55
2018-04-11T07:43:27.735Z,97360.48
2018-04-11T07:45:56.022Z,97350.81
2018-04-11T07:48:24.299Z,97356.50
2018-04-11T07:50:52.564Z,97354.78
2018-04-11T07:53:20.847Z,97355.23
2018-04-11T07:55:50.029Z,97359.42
2018-04-11T07:58:18.329Z,97356.76
2018-04-11T08:00:46.590Z,97346.55
2018-04-11T08:03:14.899Z,97352.23
2018-04-11T08:05:43.159Z,97351.50
2018-04-11T08:08:11.416Z,97346.40
2018-04-11T08:10:39.700Z,97351.41
2018-04-11T08:13:07.963Z,97358.79
2018-04-11T08:15:36.258Z,97350.41
2018-04-11T08:18:04.564Z,97347.87
2018-04-11T08:20:32.804Z,97346.29
2018-04-11T08:23:01.101Z,97355.79
2018-04-11T08:25:29.411Z,97343.01
2018-04-11T08:27:57.686Z,97341.67
2018-04-11T08:30:25.999Z,97340.81
2018-04-11T08:32:54.273Z,97338.94
2018-04-11T08:35:22.564Z,97336.35
2018-04-11T08:37:50.842Z,97337.30
2018-04-11T08:40:19.136Z,97338.67
2018-04-11T08:42:47.417Z,97337.91
2018-04-11T08:45:15.690Z,97335.41
2018-04-11T08:47:44.002Z,97341.90
2018-04-11T08:50:12.267Z,97337.48
2018-04-11T08:52:40.590Z,97341.42
2018-04-11T08:55:08.895Z,97341.66
2018-04-11T08:57:37.177Z,97341.52
2018-04-11T09:00:05.469Z,97338.47
2018-04-11T09:02:33.745Z,97339.95
2018-04-11T09:05:01.998Z,97335.46
2018-04-11T09:07:30.415Z,97346.38
2018-04-11T09:09:58.691Z,97344.64
2018-04-11T09:12:26.996Z,97345.09
2018-04-11T09:14:55.266Z,97348.34
2018-04-11T09:17:23.545Z,97341.72
2018-04-11T09:19:51.833Z,97337.05
2018-04-11T09:22:20.092Z,97336.69
2018-04-11T09:24:48.388Z,97334.58
2018-04-11T09:27:16.660Z,97328.83
2018-04-11T09:29:44.920Z,97331.77
2018-04-11T09:32:13.206Z,97323.56
2018-04-11T09:34:41.480Z,97325.02
2018-04-11T09:37:09.768Z,97322.13
2018-04-11T09:39:38.066Z,97318.80
2018-04-11T09:42:06.335Z,97309.44
2018-04-11T09:44:34.625Z,97314.19
2018-04-11T09:47:04.189Z,97313.00
2018-04-11T09:49:32.490Z,97306.61
2018-04-11T09:52:02.257Z,97311.52
2018-04-11T09:54:30.543Z,97310.25
2018-04-11T09:56:58.853Z,97306.81
2018-04-11T09:59:27.106Z,97306.00
2018-04-11T10:01:55.395Z,97300.41
2018-04-11T10:04:23.659Z,97305.61
2018-04-11T10:06:51.977Z,97304.64
2018-04-11T10:09:20.238Z,97304.91
2018-04-11T10:11:48.551Z,97296.44
2018-04-11T10:14:16.779Z,97293.55
2018-04-11T10:16:45.079Z,97287.46
2018-04-11T10:19:13.360Z,97287.00
2018-04-11T10:21:41.665Z,97280.71
2018-04-11T10:24:10.073Z,97274.77
2018-04-11T10:26:38.339Z,97282.06
2018-04-11T10:29:06.626Z,97278.09
2018-04-11T10:31:34.896Z,97278.54
2018-04-11T10:34:03.179Z,97275.52
2018-04-11T10:36:31.462Z,97278.56
2018-04-11T10:38:59.746Z,97273.41
2018-04-11T10:41:28.100Z,97267.88
2018-04-11T10:43:56.363Z,97262.39
2018-04-11T10:46:25.422Z,97263.23
2018-04-11T10:48:54.624Z,97268.55
2018-04-11T10:51:22.906Z,97253.91
2018-04-11T10:53:51.227Z,97252.48
2018-04-11T10:56:19.504Z,97250.52
2018-04-11T10:58:48.532Z,97256.24
2018-04-11T11:01:16.887Z,97252.66
2018-04-11T11:03:45.151Z,97253.17
2018-04-11T11:06:13.433Z,97256.56
2018-04-11T11:08:41.735Z,97256.91
2018-04-11T11:11:10.938Z,97259.08
2018-04-11T11:13:39.197Z,97257.22
2018-04-11T11:16:07.497Z,97250.19
2018-04-11T11:18:35.777Z,97247.97
2018-04-11T11:21:04.046Z,97253.20
2018-04-11T11:23:32.335Z,97245.65
2018-04-11T11:26:01.404Z,97251.95
2018-04-11T11:28:29.670Z,97247.55
2018-04-11T11:30:58.715Z,97241.63
2018-04-11T11:33:26.974Z,97247.24
2018-04-11T11:35:55.283Z,97236.14
2018-04-11T11:38:23.551Z,97232.27
2018-04-11T11:40:51.845Z,97238.50
2018-04-11T11:43:20.128Z,97238.08
2018-04-11T11:45:48.386Z,97235.73
2018-04-11T11:48:16.664Z,97231.56
2018-04-11T11:50:44.943Z,97230.55
2018-04-11T11:53:13.239Z,97230.17
2018-04-11T11:55:41.530Z,97235.34
2018-04-11T11:58:10.615Z,97236.56
2018-04-11T12:00:38.896Z,97235.73
2018-04-11T12:03:07.182Z,97229.54
2018-04-11T12:05:35.438Z,97233.33
2018-04-11T12:08:03.723Z,97225.62
2018-04-11T12:10:31.986Z,97227.22
2018-04-11T12:13:00.261Z,97227.62
2018-04-11T12:15:28.574Z,97219.53
2018-04-11T12:17:57.631Z,97220.52
2018-04-11T12:20:25.956Z,97215.39
2018-04-11T12:22:54.201Z,97220.56
2018-04-11T12:25:22.482Z,97213.16
2018-04-11T12:27:50.784Z,97203.91
2018-04-11T12:30:19.820Z,97203.94
2018-04-11T12:32:48.091Z,97208.41
2018-04-11T12:35:16.368Z,97198.14
2018-04-11T12:37:44.662Z,97200.11
2018-04-11T12:40:12.935Z,97197.31
2018-04-11T12:42:41.227Z,97201.27
2018-04-11T12:45:09.490Z,97195.73
2018-04-11T12:47:37.763Z,97194.83
2018-04-11T12:50:06.051Z,97190.52
2018-04-11T12:52:34.321Z,97188.05
2018-04-11T12:55:02.585Z,97183.84
2018-04-11T12:57:30.885Z,97173.67
2018-04-11T12:59:59.148Z,97173.27
2018-04-11T13:02:28.202Z,97177.62
2018-04-11T13:04:56.490Z,97178.72
2018-04-11T13:07:25.526Z,97171.68
2018-04-11T13:09:53.804Z,97167.49
2018-04-11T13:12:22.100Z,97171.14
2018-04-11T13:14:50.382Z,97162.28
2018-04-11T13:17:18.633Z,97156.43
2018-04-11T13:19:46.945Z,97154.70
2018-04-11T13:22:15.206Z,97149.87
2018-04-11T13:24:43.453Z,97150.27
2018-04-11T13:27:11.741Z,97147.28
2018-04-11T13:29:40.041Z,97141.66
2018-04-11T13:32:08.349Z,97137.30
2018-04-11T13:34:36.659Z,97137.19
2018-04-11T13:37:04.946Z,97126.41
2018-04-11T13:39:33.235Z,97125.09
2018-04-11T13:42:01.492Z,97128.70
2018-04-11T13:44:29.782Z,97121.34
2018-04-11T13:46:58.114Z,97122.58
2018-04-11T13:49:26.386Z,97124.34
2018-04-11T13:51:54.670Z,97124.66
2018-04-11T13:54:22.974Z,97119.20
2018-04-11T13:56:51.253Z,97114.52
2018-04-11T13:59:20.307Z,97118.59
2018-04-11T14:01:48.605Z,97119.18
2018-04-11T14:04:16.873Z,97115.95
2018-04-11T14:06:45.162Z,97118.24
2018-04-11T14:09:13.453Z,97118.31
2018-04-11T14:11:42.475Z,97120.72
2018-04-11T14:14:10.767Z,97122.11
2018-04-11T14:16:39.815Z,97115.66
2018-04-11T14:19:08.860Z,97118.77
2018-04-11T14:21:37.141Z,97120.09
2018-04-11T14:24:05.406Z,97114.02
2018-04-11T14:26:33.678Z,97113.83
2018-04-11T14:29:01.944Z,97100.56
2018-04-11T14:31:30.236Z,97101.95
2018-04-11T14:33:58.511Z,97095.34
2018-04-11T14:36:26.806Z,97095.65
2018-04-11T14:38:55.100Z,97089.44
2018-04-11T14:41:23.365Z,97101.68
2018-04-11T14:43:51.630Z,97095.95
2018-04-11T14:46:20.356Z,97094.63
2018-04-11T14:48:48.625Z,97094.70
2018-04-11T14:51:16.938Z,97095.88
2018-04-11T14:53:46.697Z,97091.56
2018-04-11T14:56:15.001Z,97091.83
2018-04-11T14:58:43.301Z,97092.68
2018-04-11T15:01:11.621Z,97093.03
2018-04-11T15:03:39.898Z,97089.56
2018-04-11T15:06:08.166Z,97087.92
2018-04-11T15:08:36.444Z,97082.58
2018-04-11T15:11:05.514Z,97083.15
2018-04-11T15:13:33.801Z,97080.09
2018-04-11T15:16:02.872Z,97078.84
2018-04-11T15:18:31.247Z,97070.33
2018-04-11T15:20:59.561Z,97067.53
2018-04-11T15:23:30.450Z,97075.08
2018-04-11T15:25:58.736Z,97071.45
2018-04-11T15:28:27.032Z,97076.55
2018-04-11T15:30:55.295Z,97079.70
2018-04-11T15:33:23.612Z,97081.55
2018-04-11T15:35:52.645Z,97076.70
2018-04-11T15:38:20.905Z,97079.26
2018-04-11T15:40:49.192Z,97073.22
2018-04-11T15:43:17.486Z,97080.23
2018-04-11T15:45:45.789Z,97072.92
2018-04-11T15:48:14.094Z,97073.66
2018-04-11T15:50:42.430Z,97067.58
2018-04-11T15:53:10.669Z,97067.06
2018-04-11T15:55:38.944Z,97061.06
2018-04-11T15:58:07.685Z,97068.34
2018-04-11T16:00:35.934Z,97070.52
2018-04-11T16:03:04.212Z,97079.81
2018-04-11T16:05:32.508Z,97080.88
2018-04-11T16:08:00.777Z,97067.37
2018-04-11T16:10:29.547Z,97069.56
2018-04-11T16:12:58.771Z,97073.87
2018-04-11T16:15:27.037Z,97073.22
2018-04-11T16:17:55.330Z,97064.37
2018-04-11T16:20:23.607Z,97060.17
2018-04-11T16:22:51.894Z,97065.87
2018-04-11T16:25:20.223Z,97064.52
2018-04-11T16:27:48.516Z,97069.64
2018-04-11T16:30:16.803Z,97070.06
2018-04-11T16:32:45.076Z,97066.47
2018-04-11T16:35:13.342Z,97065.84
2018-04-11T16:37:41.634Z,97070.74
2018-04-11T16:40:09.902Z,97066.63
2018-04-11T16:42:38.193Z,97062.48
2018-04-11T16:45:06.498Z,97067.49
2018-04-11T16:47:34.764Z,97068.65
2018-04-11T16:50:03.056Z,97071.11
2018-04-11T16:52:31.312Z,97066.95
2018-04-11T16:54:59.592Z,97066.95
2018-04-11T16:57:27.876Z,97059.11
2018-04-11T16:59:56.187Z,97068.17
2018-04-11T17:02:24.494Z,97068.63
2018-04-11T17:04:53.318Z,97078.01
2018-04-11T17:07:21.625Z,97072.14
2018-04-11T17:09:49.908Z,97078.19
2018-04-11T17:12:18.218Z,97073.33
2018-04-11T17:14:46.544Z,97071.20
2018-04-11T17:17:14.811Z,97075.81
2018-04-11T17:19:43.134Z,97069.81
2018-04-11T17:22:29.089Z,97069.95
2018-04-11T17:25:14.858Z,97072.12
2018-04-11T17:28:00.809Z,97073.64
2018-04-11T17:30:46.706Z,97072.72
2018-04-11T17:33:14.978Z,97067.95
2018-04-11T17:35:44.032Z,97065.00
2018-04-11T17:38:12.338Z,97068.79
2018-04-11T17:40:41.379Z,97065.30
2018-04-11T17:43:09.665Z,97067.56
2018-04-11T17:45:37.938Z,97068.77
2018-04-11T17:48:08.275Z,97067.81
2018-04-11T17:50:36.601Z,97075.61
2018-04-11T17:53:04.906Z,97070.02
2018-04-11T17:55:33.226Z,97068.91
2018-04-11T17:58:01.511Z,97068.51
2018-04-11T18:00:29.828Z,97065.73
2018-04-11T18:02:58.125Z,97068.80
2018-04-11T18:05:27.176Z,97070.92
2018-04-11T18:07:55.937Z,97068.36
2018-04-11T18:10:24.216Z,97068.70
2018-04-11T18:12:53.404Z,97072.36
2018-04-11T18:15:21.703Z,97066.13
2018-04-11T18:17:49.977Z,97074.83
2018-04-11T18:20:18.784Z,97068.75
2018-04-11T18:22:47.062Z,97069.94
2018-04-11T18:25:15.346Z,97069.23
2018-04-11T18:27:43.627Z,97071.28
2018-04-11T18:30:12.685Z,97068.16
2018-04-11T18:32:40.954Z,97066.38
2018-04-11T18:35:09.257Z,97075.61
2018-04-11T18:37:37.543Z,97071.98
2018-04-11T18:40:05.815Z,97069.44
2018-04-11T18:42:34.195Z,97065.31
2018-04-11T18:45:02.445Z,97069.02
2018-04-11T18:47:30.746Z,97067.20
2018-04-11T18:49:59.011Z,97071.05
2018-04-11T18:52:27.275Z,97073.45
2018-04-11T18:54:56.624Z,97070.86
2018-04-11T18:57:24.941Z,97072.45
2018-04-11T18:59:53.213Z,97074.98
2018-04-11T19:02:25.263Z,97071.88
2018-04-11T19:04:53.523Z,97069.56
2018-04-11T19:07:26.875Z,97075.30
2018-04-11T19:09:55.111Z,97070.28
2018-04-11T19:12:23.400Z,97061.28
2018-04-11T19:14:51.710Z,97061.52
2018-04-11T19:17:19.986Z,97059.00
2018-04-11T19:19:48.261Z,97066.17
2018-04-11T19:22:16.590Z,97062.46
2018-04-11T19:24:45.650Z,97058.69
2018-04-11T19:27:13.929Z,97052.77
2018-04-11T19:29:42.238Z,97055.45
2018-04-11T19:32:12.185Z,97054.84
2018-04-11T19:34:40.623Z,97053.60
2018-04-11T19:37:10.575Z,97051.59
2018-04-11T19:39:39.624Z,97054.83
2018-04-11T19:42:07.945Z,97055.52
2018-04-11T19:44:36.999Z,97047.36
2018-04-11T19:47:05.274Z,97051.14
2018-04-11T19:49:33.550Z,97048.26
2018-04-11T19:52:01.825Z,97048.24
2018-04-11T19:54:30.171Z,97049.05
2018-04-11T19:56:58.434Z,97042.45
2018-04-11T19:59:26.714Z,97042.30
2018-04-11T20:01:54.990Z,97043.59
2018-04-11T20:04:23.288Z,97034.45
2018-04-11T20:06:51.562Z,97033.22
2018-04-11T20:09:19.855Z,97023.84
2018-04-11T20:11:48.136Z,97024.66
2018-04-11T20:14:16.425Z,97026.81
2018-04-11T20:16:44.738Z,97020.33
2018-04-11T20:19:13.041Z,97028.25
2018-04-11T20:21:41.327Z,97022.75
2018-04-11T20:24:09.604Z,97018.52
2018-04-11T20:26:37.896Z,97024.02
2018-04-11T20:29:06.898Z,97015.49
2018-04-11T20:31:35.172Z,97025.84
2018-04-11T20:34:03.659Z,97020.78
2018-04-11T20:36:32.041Z,97019.94
2018-04-11T20:39:00.343Z,97020.92
2018-04-11T20:41:28.701Z,97020.92
2018-04-11T20:43:57.093Z,97013.78
2018-04-11T20:46:25.379Z,97013.04
2018-04-11T20:48:53.660Z,97010.12
2018-04-11T20:51:21.936Z,97006.83
2018-04-11T20:53:50.237Z,97006.94
2018-04-11T20:56:18.522Z,97007.91
2018-04-11T20:58:46.809Z,97007.70
2018-04-11T21:01:16.022Z,97006.43
2018-04-11T21:03:44.732Z,97003.67
2018-04-11T21:06:13.016Z,96997.70
2018-04-11T21:08:41.748Z,97001.13
2018-04-11T21:11:10.094Z,96995.76
2018-04-11T21:13:38.338Z,96997.16
2018-04-11T21:16:06.627Z,96995.66
2018-04-11T21:18:34.920Z,96988.79
2018-04-11T21:21:03.195Z,96991.94
2018-04-11T21:23:31.592Z,96993.05
2018-04-11T21:25:59.867Z,96993.02
2018-04-11T21:28:28.135Z,96998.41
2018-04-11T21:30:56.430Z,96990.30
2018-04-11T21:33:24.706Z,96987.08
2018-04-11T21:35:52.977Z,96988.38
2018-04-11T21:38:21.287Z,96980.45
2018-04-11T21:40:49.546Z,96976.61
2018-04-11T21:43:17.884Z,96978.05
2018-04-11T21:45:46.176Z,96976.95
2018-04-11T21:48:14.446Z,96981.30
2018-04-11T21:50:42.820Z,96964.81
2018-04-11T21:53:11.114Z,96971.34
2018-04-11T21:55:39.367Z,96972.56
2018-04-11T21:58:07.625Z,96970.98
2018-04-11T22:00:35.940Z,96976.23
2018-04-11T22:03:04.308Z,96974.56
2018-04-11T22:05:32.581Z,96969.42
2018-04-11T22:08:00.838Z,96962.94
2018-04-11T22:10:29.876Z,96964.08
2018-04-11T22:12:58.143Z,96954.53
2018-04-11T22:15:27.479Z,96952.48
2018-04-11T22:17:55.781Z,96954.88
2018-04-11T22:20:24.048Z,96942.40
2018-04-11T22:22:52.320Z,96947.91
2018-04-11T22:25:20.618Z,96944.39
2018-04-11T22:27:49.657Z,96933.42
2018-04-11T22:30:17.954Z,96933.73
2018-04-11T22:32:46.223Z,96931.13
2018-04-11T22:35:14.479Z,96929.81
2018-04-11T22:37:42.779Z,96921.57
2018-04-11T22:40:11.066Z,96920.63
2018-04-11T22:42:39.377Z,96919.34
2018-04-11T22:45:08.436Z,96909.27
2018-04-11T22:47:36.681Z,96905.88
2018-04-11T22:50:04.979Z,96902.53
2018-04-11T22:52:33.246Z,96907.89
2018-04-11T22:55:01.558Z,96904.92
2018-04-11T22:57:29.826Z,96903.36
2018-04-11T22:59:59.097Z,96898.87
2018-04-11T23:02:27.385Z,96903.28
2018-04-11T23:04:55.687Z,96897.91
2018-04-11T23:07:23.999Z,96898.64
2018-04-11T23:09:53.148Z,96892.06
2018-04-11T23:12:21.414Z,96887.23
2018-04-11T23:14:49.704Z,96887.84
2018-04-11T23:17:17.969Z,96882.69
2018-04-11T23:19:46.998Z,96886.59
2018-04-11T23:22:17.009Z,96881.14
2018-04-11T23:24:45.251Z,96874.41
2018-04-11T23:27:13.543Z,96874.25
2018-04-11T23:29:41.858Z,96873.98
2018-04-11T23:32:10.113Z,96875.39
2018-04-11T23:34:38.403Z,96864.93
2018-04-11T23:37:06.663Z,96864.50
2018-04-11T23:39:35.116Z,96869.28
2018-04-11T23:42:03.406Z,96866.00
2018-04-11T23:44:31.671Z,96862.02
2018-04-11T23:46:59.961Z,96855.53
2018-04-11T23:49:28.209Z,96860.61
2018-04-11T23:51:56.484Z,96852.59
2018-04-11T23:54:25.524Z,96846.97
2018-04-11T23:56:53.774Z,96847.91
2018-04-11T23:59:22.060Z,96848.48
